Wetterstation Vordersexau
Wetterdaten: Woche 18.12.23 - 24.12.23 (KW51)
Datum Zeit Temp. A. Feuchte A. Luftdruck Regen Wind Richtung Taupunkt Windchill Windben
18.12.2023 00:00 -0,9 C 99 % 1029,6 hPa 0,0 l/m 0,6 km/h (0 Bft) SO -1,0 C -0,9 C 2,5 km/h (1 Bft)
18.12.2023 01:00 -0,9 C 99 % 1029,8 hPa 0,0 l/m 0,0 km/h (0 Bft) O -1,1 C -0,9 C 1,3 km/h (1 Bft)
18.12.2023 02:00 -1,1 C 99 % 1029,8 hPa 0,0 l/m 0,6 km/h (0 Bft) N -1,3 C -1,1 C 1,8 km/h (1 Bft)
18.12.2023 03:00 -1,5 C 99 % 1029,6 hPa 0,0 l/m 0,0 km/h (0 Bft) N -1,6 C -1,5 C 0,0 km/h (0 Bft)
18.12.2023 04:00 -1,5 C 99 % 1029,4 hPa 0,0 l/m 0,0 km/h (0 Bft) N -1,6 C -1,5 C 1,3 km/h (1 Bft)
18.12.2023 05:00 -2,0 C 99 % 1029,6 hPa 0,0 l/m 0,0 km/h (0 Bft) N -2,1 C -2,0 C 0,0 km/h (0 Bft)
18.12.2023 06:00 -2,0 C 99 % 1029,4 hPa 0,0 l/m 0,0 km/h (0 Bft) N -2,1 C -2,0 C 0,0 km/h (0 Bft)
18.12.2023 07:00 -2,0 C 99 % 1029,6 hPa 0,0 l/m 0,0 km/h (0 Bft) N -2,2 C -2,0 C 0,0 km/h (0 Bft)
18.12.2023 08:00 -2,6 C 99 % 1029,5 hPa 0,0 l/m 0,0 km/h (0 Bft) N -2,7 C -2,6 C 0,0 km/h (0 Bft)
18.12.2023 09:00 -0,3 C 99 % 1029,6 hPa 0,0 l/m 0,0 km/h (0 Bft) N -0,5 C -0,3 C 0,0 km/h (0 Bft)
18.12.2023 10:00 1,9 C 94 % 1029,4 hPa 0,3 l/m 0,0 km/h (0 Bft) W-NW 1,0 C 1,9 C 1,3 km/h (1 Bft)
18.12.2023 11:00 3,3 C 91 % 1029,0 hPa 0,0 l/m 1,8 km/h (1 Bft) W 1,8 C 3,3 C 3,6 km/h (1 Bft)
18.12.2023 12:00 5,6 C 84 % 1028,0 hPa 0,0 l/m 1,8 km/h (1 Bft) W 3,1 C 5,6 C 3,6 km/h (1 Bft)
18.12.2023 13:00 7,9 C 76 % 1025,6 hPa 0,0 l/m 0,6 km/h (0 Bft) S-SW 3,9 C 7,9 C 2,5 km/h (1 Bft)
18.12.2023 14:00 9,1 C 74 % 1023,8 hPa 0,0 l/m 0,6 km/h (0 Bft) W 4,6 C 9,1 C 2,5 km/h (1 Bft)
18.12.2023 15:00 9,2 C 71 % 1023,0 hPa 0,0 l/m 1,3 km/h (1 Bft) W-NW 4,1 C 9,2 C 3,0 km/h (1 Bft)
18.12.2023 16:00 5,7 C 85 % 1023,4 hPa 0,0 l/m 0,6 km/h (0 Bft) N 3,4 C 5,7 C 1,3 km/h (1 Bft)
18.12.2023 17:00 3,0 C 92 % 1023,5 hPa 0,0 l/m 0,0 km/h (0 Bft) N 1,8 C 3,0 C 0,0 km/h (0 Bft)
18.12.2023 18:00 2,3 C 93 % 1023,5 hPa 0,0 l/m 0,0 km/h (0 Bft) O-NO 1,3 C 2,3 C 2,5 km/h (1 Bft)
18.12.2023 19:00 1,5 C 92 % 1023,2 hPa 0,0 l/m 2,5 km/h (1 Bft) O-NO 0,2 C 1,5 C 3,6 km/h (1 Bft)
18.12.2023 20:00 1,5 C 92 % 1023,3 hPa 0,0 l/m 0,6 km/h (0 Bft) O 0,3 C 1,5 C 1,3 km/h (1 Bft)
18.12.2023 21:00 0,7 C 93 % 1023,3 hPa 0,0 l/m 0,0 km/h (0 Bft) NO -0,4 C 0,7 C 1,3 km/h (1 Bft)
18.12.2023 22:00 -0,1 C 94 % 1023,5 hPa 0,0 l/m 0,6 km/h (0 Bft) SO -1,0 C -0,1 C 1,3 km/h (1 Bft)
18.12.2023 23:00 -0,2 C 94 % 1022,9 hPa 0,0 l/m 1,3 km/h (1 Bft) N -1,0 C -0,2 C 1,8 km/h (1 Bft)
19.12.2023 00:00 -0,6 C 95 % 1023,3 hPa 0,0 l/m 0,0 km/h (0 Bft) N -1,4 C -0,6 C 0,0 km/h (0 Bft)
19.12.2023 01:00 -0,4 C 94 % 1022,7 hPa 0,0 l/m 0,0 km/h (0 Bft) N -1,3 C -0,4 C 0,0 km/h (0 Bft)
19.12.2023 02:00 -0,9 C 94 % 1022,3 hPa 0,0 l/m 0,0 km/h (0 Bft) N -1,8 C -0,9 C 0,0 km/h (0 Bft)
19.12.2023 03:00 -0,9 C 94 % 1022,6 hPa 0,0 l/m 0,0 km/h (0 Bft) SO -1,8 C -0,9 C 2,5 km/h (1 Bft)
19.12.2023 04:00 -0,6 C 94 % 1022,2 hPa 0,0 l/m 0,6 km/h (0 Bft) SO -1,6 C -0,6 C 3,6 km/h (1 Bft)
19.12.2023 05:00 -0,3 C 91 % 1022,2 hPa 0,0 l/m 0,6 km/h (0 Bft) N -1,6 C -0,3 C 4,3 km/h (1 Bft)
19.12.2023 06:00 -1,0 C 92 % 1022,2 hPa 0,0 l/m 0,6 km/h (0 Bft) O -2,2 C -1,0 C 1,8 km/h (1 Bft)
19.12.2023 07:00 -0,9 C 92 % 1022,2 hPa 0,0 l/m 0,0 km/h (0 Bft) N -2,2 C -0,9 C 0,0 km/h (0 Bft)
19.12.2023 08:00 -1,0 C 91 % 1022,2 hPa 0,0 l/m 0,6 km/h (0 Bft) NO -2,2 C -1,0 C 1,8 km/h (1 Bft)
19.12.2023 09:00 1,5 C 82 % 1022,2 hPa 0,0 l/m 2,5 km/h (1 Bft) O-SO -1,3 C 1,5 C 3,6 km/h (1 Bft)
19.12.2023 10:00 4,2 C 79 % 1021,4 hPa 0,0 l/m 0,6 km/h (0 Bft) O-NO 0,9 C 4,2 C 1,3 km/h (1 Bft)
19.12.2023 11:00 6,3 C 68 % 1020,7 hPa 0,0 l/m 1,3 km/h (1 Bft) NO 0,8 C 6,3 C 4,3 km/h (1 Bft)
19.12.2023 12:00 7,6 C 64 % 1019,2 hPa 0,0 l/m 0,6 km/h (0 Bft) NO 1,1 C 7,6 C 1,3 km/h (1 Bft)
19.12.2023 13:00 8,8 C 64 % 1017,5 hPa 0,0 l/m 2,3 km/h (1 Bft) W 2,3 C 8,8 C 4,8 km/h (1 Bft)
19.12.2023 14:00 8,0 C 66 % 1016,5 hPa 0,0 l/m 6,6 km/h (2 Bft) W 2,1 C 6,9 C 10,4 km/h (2 Bft)
19.12.2023 15:00 6,6 C 73 % 1016,0 hPa 0,0 l/m 4,3 km/h (1 Bft) N-NW 2,1 C 6,6 C 7,4 km/h (2 Bft)
19.12.2023 16:00 5,4 C 77 % 1016,3 hPa 0,0 l/m 2,3 km/h (1 Bft) N-NO 1,7 C 5,4 C 4,3 km/h (1 Bft)
19.12.2023 17:00 4,2 C 81 % 1016,3 hPa 0,0 l/m 1,8 km/h (1 Bft) O-NO 1,2 C 4,2 C 3,0 km/h (1 Bft)
19.12.2023 18:00 2,4 C 87 % 1015,8 hPa 0,0 l/m 0,6 km/h (0 Bft) SO 0,5 C 2,4 C 1,3 km/h (1 Bft)
19.12.2023 19:00 3,3 C 87 % 1014,9 hPa 0,0 l/m 2,5 km/h (1 Bft) W 1,3 C 3,3 C 4,8 km/h (1 Bft)
19.12.2023 20:00 4,9 C 88 % 1014,9 hPa 0,0 l/m 6,1 km/h (2 Bft) W-SW 3,1 C 3,6 C 9,2 km/h (2 Bft)
19.12.2023 21:00 5,9 C 86 % 1014,3 hPa 0,0 l/m 8,6 km/h (2 Bft) W-SW 3,7 C 4,1 C 12,3 km/h (3 Bft)
19.12.2023 22:00 6,1 C 86 % 1013,3 hPa 0,0 l/m 12,8 km/h (3 Bft) S-SW 4,0 C 1,8 C 19,6 km/h (3 Bft)
19.12.2023 23:00 6,0 C 88 % 1013,0 hPa 0,0 l/m 13,5 km/h (3 Bft) W 4,2 C 1,1 C 18,4 km/h (3 Bft)
20.12.2023 00:00 6,9 C 85 % 1012,2 hPa 0,0 l/m 9,7 km/h (2 Bft) W-SW 4,5 C 4,6 C 15,9 km/h (3 Bft)
20.12.2023 01:00 7,3 C 84 % 1012,2 hPa 0,0 l/m 10,9 km/h (2 Bft) S 4,7 C 4,0 C 16,0 km/h (3 Bft)
20.12.2023 02:00 6,1 C 93 % 1012,0 hPa 1,5 l/m 10,4 km/h (2 Bft) SW 5,1 C 3,4 C 17,9 km/h (3 Bft)
20.12.2023 03:00 6,1 C 96 % 1012,3 hPa 2,1 l/m 8,6 km/h (2 Bft) SW 5,4 C 4,2 C 14,8 km/h (3 Bft)
20.12.2023 04:00 5,8 C 98 % 1012,7 hPa 3,3 l/m 7,2 km/h (2 Bft) S-SW 5,5 C 5,1 C 13,5 km/h (3 Bft)
20.12.2023 05:00 5,7 C 98 % 1013,3 hPa 1,2 l/m 3,0 km/h (1 Bft) SW 5,3 C 5,7 C 6,1 km/h (2 Bft)
20.12.2023 06:00 5,8 C 98 % 1013,7 hPa 0,0 l/m 6,1 km/h (2 Bft) W-SW 5,4 C 5,5 C 10,4 km/h (2 Bft)
20.12.2023 07:00 5,9 C 97 % 1014,4 hPa 0,0 l/m 3,6 km/h (1 Bft) W 5,5 C 5,9 C 6,6 km/h (2 Bft)
20.12.2023 08:00 5,8 C 98 % 1015,0 hPa 0,3 l/m 0,0 km/h (0 Bft) N 5,4 C 5,8 C 0,0 km/h (0 Bft)
20.12.2023 09:00 5,4 C 99 % 1015,3 hPa 0,0 l/m 0,0 km/h (0 Bft) W 5,2 C 5,4 C 0,0 km/h (0 Bft)
20.12.2023 10:00 5,6 C 99 % 1015,9 hPa 0,0 l/m 3,0 km/h (1 Bft) W 5,4 C 5,6 C 6,1 km/h (2 Bft)
20.12.2023 11:00 6,3 C 85 % 1015,8 hPa 0,0 l/m 3,8 km/h (1 Bft) W-NW 3,9 C 6,3 C 6,6 km/h (2 Bft)
20.12.2023 12:00 6,2 C 80 % 1015,4 hPa 0,0 l/m 1,8 km/h (1 Bft) W 3,0 C 6,2 C 4,3 km/h (1 Bft)
20.12.2023 13:00 7,7 C 72 % 1014,6 hPa 0,0 l/m 4,3 km/h (1 Bft) W 2,8 C 7,7 C 8,6 km/h (2 Bft)
20.12.2023 14:00 6,6 C 76 % 1014,5 hPa 0,0 l/m 0,6 km/h (0 Bft) W-SW 2,6 C 6,6 C 2,5 km/h (1 Bft)
20.12.2023 15:00 6,6 C 77 % 1014,1 hPa 0,0 l/m 3,8 km/h (1 Bft) SW 2,9 C 6,6 C 6,6 km/h (2 Bft)
20.12.2023 16:00 6,3 C 79 % 1014,3 hPa 0,0 l/m 7,2 km/h (2 Bft) W-SW 3,0 C 5,7 C 11,2 km/h (2 Bft)
20.12.2023 17:00 5,6 C 83 % 1014,3 hPa 0,0 l/m 9,2 km/h (2 Bft) SW 2,9 C 3,4 C 13,0 km/h (3 Bft)
20.12.2023 18:00 5,4 C 83 % 1014,3 hPa 0,0 l/m 7,4 km/h (2 Bft) SW 2,7 C 4,5 C 9,2 km/h (2 Bft)
20.12.2023 19:00 5,4 C 84 % 1014,4 hPa 0,0 l/m 7,4 km/h (2 Bft) S-SW 2,8 C 4,4 C 10,3 km/h (2 Bft)
20.12.2023 20:00 5,6 C 84 % 1013,7 hPa 0,0 l/m 7,9 km/h (2 Bft) W-SW 3,0 C 4,3 C 12,3 km/h (3 Bft)
20.12.2023 21:00 5,7 C 83 % 1012,9 hPa 0,0 l/m 10,4 km/h (2 Bft) W-SW 3,0 C 2,6 C 15,3 km/h (3 Bft)
20.12.2023 22:00 5,9 C 82 % 1012,7 hPa 0,0 l/m 9,1 km/h (2 Bft) SW 3,0 C 3,7 C 17,1 km/h (3 Bft)
20.12.2023 23:00 5,9 C 82 % 1012,1 hPa 0,0 l/m 7,4 km/h (2 Bft) SW 3,1 C 5,0 C 10,3 km/h (2 Bft)
21.12.2023 00:00 6,1 C 82 % 1011,5 hPa 0,0 l/m 14,1 km/h (3 Bft) W-SW 3,2 C 0,8 C 22,7 km/h (4 Bft)
21.12.2023 01:00 6,3 C 83 % 1011,1 hPa 0,0 l/m 15,8 km/h (3 Bft) W-SW 3,5 C 0,4 C 25,0 km/h (4 Bft)
21.12.2023 02:00 6,4 C 84 % 1010,7 hPa 0,0 l/m 15,3 km/h (3 Bft) S-SW 3,8 C 0,7 C 26,3 km/h (4 Bft)
21.12.2023 03:00 6,4 C 85 % 1010,3 hPa 0,0 l/m 10,9 km/h (2 Bft) W 4,0 C 3,1 C 17,8 km/h (3 Bft)
21.12.2023 04:00 6,7 C 85 % 1009,4 hPa 0,0 l/m 11,2 km/h (2 Bft) W-SW 4,4 C 3,2 C 19,6 km/h (3 Bft)
21.12.2023 05:00 7,0 C 85 % 1008,9 hPa 0,0 l/m 13,0 km/h (3 Bft) SW 4,7 C 2,6 C 16,6 km/h (3 Bft)
21.12.2023 06:00 7,3 C 84 % 1008,2 hPa 0,0 l/m 14,1 km/h (3 Bft) W-SW 4,8 C 2,3 C 25,0 km/h (4 Bft)
21.12.2023 07:00 7,5 C 85 % 1008,1 hPa 0,0 l/m 16,5 km/h (3 Bft) SW 5,1 C 1,4 C 22,0 km/h (4 Bft)
21.12.2023 08:00 7,6 C 86 % 1007,3 hPa 0,0 l/m 16,0 km/h (3 Bft) W-SW 5,4 C 1,8 C 23,3 km/h (4 Bft)
21.12.2023 09:00 8,3 C 84 % 1006,6 hPa 0,0 l/m 17,6 km/h (3 Bft) SW 5,6 C 2,0 C 25,0 km/h (4 Bft)
21.12.2023 10:00 8,5 C 83 % 1006,5 hPa 0,0 l/m 15,3 km/h (3 Bft) SW 5,8 C 3,3 C 22,7 km/h (4 Bft)
21.12.2023 11:00 8,8 C 84 % 1005,5 hPa 0,0 l/m 19,6 km/h (3 Bft) W-SW 6,1 C 1,8 C 28,1 km/h (4 Bft)
21.12.2023 12:00 8,9 C 85 % 1004,0 hPa 0,0 l/m 22,5 km/h (4 Bft) W-SW 6,4 C 1,1 C 30,6 km/h (5 Bft)
21.12.2023 13:00 9,1 C 85 % 1002,2 hPa 0,0 l/m 19,4 km/h (3 Bft) S-SW 6,7 C 2,3 C 33,7 km/h (5 Bft)
21.12.2023 14:00 9,2 C 86 % 1000,8 hPa 0,0 l/m 17,1 km/h (3 Bft) S-SO 6,9 C 3,3 C 27,5 km/h (4 Bft)
21.12.2023 15:00 9,0 C 90 % 1000,0 hPa 0,0 l/m 15,8 km/h (3 Bft) W-SW 7,4 C 3,7 C 27,0 km/h (4 Bft)
21.12.2023 16:00 9,4 C 88 % 999,3 hPa 0,0 l/m 15,3 km/h (3 Bft) W-SW 7,5 C 4,3 C 23,3 km/h (4 Bft)
21.12.2023 17:00 9,9 C 87 % 998,8 hPa 0,0 l/m 20,1 km/h (4 Bft) W-SW 7,8 C 3,3 C 28,3 km/h (4 Bft)
21.12.2023 18:00 10,1 C 86 % 998,7 hPa 0,0 l/m 17,8 km/h (3 Bft) W 7,8 C 4,1 C 23,8 km/h (4 Bft)
21.12.2023 19:00 10,0 C 89 % 999,3 hPa 0,0 l/m 12,8 km/h (3 Bft) W-SW 8,1 C 6,2 C 19,6 km/h (3 Bft)
21.12.2023 20:00 9,5 C 93 % 999,7 hPa 0,0 l/m 10,4 km/h (2 Bft) W-SW 8,3 C 6,7 C 14,8 km/h (3 Bft)
21.12.2023 21:00 9,6 C 90 % 999,6 hPa 0,0 l/m 9,9 km/h (2 Bft) W-SW 7,9 C 7,2 C 15,9 km/h (3 Bft)
21.12.2023 22:00 9,6 C 89 % 1000,0 hPa 0,0 l/m 10,9 km/h (2 Bft) W-SW 7,9 C 6,7 C 15,9 km/h (3 Bft)
21.12.2023 23:00 9,6 C 89 % 1000,3 hPa 0,0 l/m 8,6 km/h (2 Bft) W 7,8 C 8,0 C 12,3 km/h (3 Bft)
22.12.2023 00:00 8,9 C 92 % 1001,2 hPa 0,6 l/m 11,2 km/h (2 Bft) W 7,5 C 5,6 C 14,8 km/h (3 Bft)
22.12.2023 01:00 8,4 C 92 % 1001,5 hPa 0,3 l/m 5,6 km/h (1 Bft) W-SW 7,2 C 8,4 C 9,7 km/h (2 Bft)
22.12.2023 02:00 9,0 C 84 % 1002,2 hPa 0,3 l/m 9,7 km/h (2 Bft) W-NW 6,3 C 6,8 C 17,9 km/h (3 Bft)
22.12.2023 03:00 8,3 C 87 % 1003,1 hPa 1,2 l/m 6,1 km/h (2 Bft) W-NW 6,2 C 8,0 C 10,3 km/h (2 Bft)
22.12.2023 04:00 7,5 C 91 % 1003,6 hPa 0,0 l/m 1,8 km/h (1 Bft) W-SW 6,1 C 7,5 C 3,0 km/h (1 Bft)
22.12.2023 05:00 7,6 C 91 % 1003,8 hPa 0,0 l/m 5,4 km/h (1 Bft) W-SW 6,2 C 7,3 C 9,2 km/h (2 Bft)
22.12.2023 06:00 7,5 C 91 % 1004,3 hPa 0,0 l/m 10,3 km/h (2 Bft) W-SW 6,0 C 4,9 C 14,0 km/h (3 Bft)
22.12.2023 07:00 7,5 C 92 % 1004,8 hPa 0,0 l/m 10,4 km/h (2 Bft) SW 6,2 C 4,7 C 15,3 km/h (3 Bft)
22.12.2023 08:00 7,4 C 93 % 1005,6 hPa 0,0 l/m 11,2 km/h (2 Bft) W 6,2 C 3,9 C 16,0 km/h (3 Bft)
22.12.2023 09:00 7,1 C 94 % 1005,8 hPa 0,3 l/m 11,7 km/h (2 Bft) W 6,3 C 3,4 C 17,3 km/h (3 Bft)
22.12.2023 10:00 7,6 C 92 % 1005,8 hPa 0,0 l/m 9,7 km/h (2 Bft) W-SW 6,3 C 5,1 C 14,1 km/h (3 Bft)
22.12.2023 11:00 7,9 C 90 % 1005,1 hPa 0,0 l/m 10,9 km/h (2 Bft) W-SW 6,4 C 4,8 C 18,4 km/h (3 Bft)
22.12.2023 12:00 7,8 C 95 % 1004,0 hPa 0,9 l/m 10,4 km/h (2 Bft) SW 7,0 C 4,9 C 14,1 km/h (3 Bft)
22.12.2023 13:00 8,3 C 96 % 1003,3 hPa 0,0 l/m 14,8 km/h (3 Bft) W-SW 7,7 C 3,3 C 20,9 km/h (4 Bft)
22.12.2023 14:00 8,6 C 96 % 1003,1 hPa 0,6 l/m 15,3 km/h (3 Bft) W-SW 8,0 C 3,4 C 22,7 km/h (4 Bft)
22.12.2023 15:00 8,6 C 97 % 1003,5 hPa 0,9 l/m 14,0 km/h (3 Bft) W 8,2 C 4,4 C 17,6 km/h (3 Bft)
22.12.2023 16:00 8,6 C 98 % 1003,9 hPa 0,3 l/m 11,7 km/h (2 Bft) W-SW 8,2 C 5,1 C 17,9 km/h (3 Bft)
22.12.2023 17:00 8,6 C 97 % 1004,0 hPa 0,0 l/m 6,8 km/h (2 Bft) W-SW 8,2 C 7,8 C 9,2 km/h (2 Bft)
22.12.2023 18:00 8,4 C 98 % 1004,5 hPa 1,2 l/m 8,6 km/h (2 Bft) W 8,1 C 6,7 C 12,3 km/h (3 Bft)
22.12.2023 19:00 8,4 C 96 % 1005,2 hPa 0,0 l/m 9,1 km/h (2 Bft) W 7,8 C 6,4 C 12,3 km/h (3 Bft)
22.12.2023 20:00 8,4 C 96 % 1006,2 hPa 0,3 l/m 7,9 km/h (2 Bft) W 7,7 C 7,2 C 11,5 km/h (2 Bft)
22.12.2023 21:00 8,1 C 97 % 1006,8 hPa 0,9 l/m 8,4 km/h (2 Bft) W-SW 7,6 C 6,6 C 14,8 km/h (3 Bft)
22.12.2023 22:00 8,0 C 95 % 1007,2 hPa 0,0 l/m 9,7 km/h (2 Bft) W 7,2 C 5,6 C 14,1 km/h (3 Bft)
22.12.2023 23:00 7,8 C 94 % 1007,9 hPa 0,0 l/m 13,5 km/h (3 Bft) W-NW 6,9 C 3,3 C 19,6 km/h (3 Bft)
23.12.2023 00:00 7,6 C 95 % 1008,4 hPa 0,6 l/m 13,5 km/h (3 Bft) W 6,9 C 3,2 C 19,5 km/h (3 Bft)
23.12.2023 01:00 7,4 C 96 % 1009,1 hPa 0,3 l/m 11,7 km/h (2 Bft) SW 6,8 C 3,8 C 17,1 km/h (3 Bft)
23.12.2023 02:00 7,6 C 94 % 1009,6 hPa 0,0 l/m 14,8 km/h (3 Bft) SW 6,6 C 2,3 C 21,5 km/h (4 Bft)
23.12.2023 03:00 7,7 C 92 % 1010,3 hPa 0,0 l/m 15,9 km/h (3 Bft) S-SW 6,5 C 2,0 C 21,5 km/h (4 Bft)
23.12.2023 04:00 7,6 C 91 % 1010,7 hPa 0,0 l/m 14,1 km/h (3 Bft) SW 6,3 C 2,7 C 19,6 km/h (3 Bft)
23.12.2023 05:00 7,6 C 92 % 1010,6 hPa 0,0 l/m 15,3 km/h (3 Bft) SW 6,4 C 2,6 C 21,5 km/h (4 Bft)
23.12.2023 06:00 7,7 C 91 % 1010,8 hPa 0,0 l/m 16,6 km/h (3 Bft) SW 6,2 C 1,7 C 22,7 km/h (4 Bft)
23.12.2023 07:00 7,9 C 89 % 1010,8 hPa 0,0 l/m 16,5 km/h (3 Bft) W-SW 6,2 C 1,9 C 24,5 km/h (4 Bft)
23.12.2023 08:00 7,9 C 88 % 1010,8 hPa 0,0 l/m 15,3 km/h (3 Bft) W-SW 6,0 C 2,5 C 21,5 km/h (4 Bft)
23.12.2023 09:00 7,9 C 88 % 1011,3 hPa 0,0 l/m 18,9 km/h (3 Bft) W-SW 6,0 C 1,0 C 27,5 km/h (4 Bft)
23.12.2023 10:00 8,0 C 86 % 1011,5 hPa 0,0 l/m 14,8 km/h (3 Bft) S-SW 5,8 C 2,8 C 19,6 km/h (3 Bft)
23.12.2023 11:00 8,3 C 86 % 1011,2 hPa 0,0 l/m 15,3 km/h (3 Bft) SW 6,0 C 2,9 C 21,5 km/h (4 Bft)
23.12.2023 12:00 8,4 C 85 % 1011,2 hPa 0,0 l/m 20,1 km/h (4 Bft) S-SW 6,1 C 1,2 C 28,7 km/h (4 Bft)
23.12.2023 13:00 8,5 C 84 % 1011,0 hPa 0,0 l/m 17,3 km/h (3 Bft) S-SW 6,0 C 2,3 C 25,6 km/h (4 Bft)
23.12.2023 14:00 8,5 C 83 % 1011,4 hPa 0,0 l/m 15,3 km/h (3 Bft) SW 5,8 C 3,2 C 23,3 km/h (4 Bft)
23.12.2023 15:00 8,4 C 84 % 1011,3 hPa 0,0 l/m 16,5 km/h (3 Bft) W-SW 5,9 C 2,7 C 25,2 km/h (4 Bft)
23.12.2023 16:00 8,2 C 84 % 1011,8 hPa 0,0 l/m 16,5 km/h (3 Bft) W-SW 5,7 C 2,3 C 22,0 km/h (4 Bft)
23.12.2023 17:00 8,1 C 83 % 1011,8 hPa 0,0 l/m 12,2 km/h (2 Bft) SW 5,4 C 4,3 C 20,9 km/h (4 Bft)
23.12.2023 18:00 8,1 C 83 % 1012,0 hPa 0,0 l/m 16,6 km/h (3 Bft) SW 5,3 C 2,1 C 21,5 km/h (4 Bft)
23.12.2023 19:00 8,3 C 82 % 1012,1 hPa 0,0 l/m 13,5 km/h (3 Bft) SW 5,3 C 3,8 C 19,1 km/h (3 Bft)
23.12.2023 20:00 8,4 C 81 % 1012,2 hPa 0,0 l/m 12,8 km/h (3 Bft) SW 5,2 C 4,4 C 19,6 km/h (3 Bft)
23.12.2023 21:00 8,6 C 81 % 1011,9 hPa 0,0 l/m 14,6 km/h (3 Bft) SW 5,4 C 3,6 C 20,2 km/h (4 Bft)
23.12.2023 22:00 8,4 C 83 % 1012,2 hPa 0,0 l/m 15,3 km/h (3 Bft) W-SW 5,6 C 3,1 C 21,5 km/h (4 Bft)
23.12.2023 23:00 8,4 C 83 % 1012,3 hPa 0,0 l/m 16,0 km/h (3 Bft) SW 5,6 C 2,8 C 24,5 km/h (4 Bft)
24.12.2023 00:00 8,4 C 84 % 1012,4 hPa 0,0 l/m 10,4 km/h (2 Bft) SW 5,8 C 5,6 C 14,1 km/h (3 Bft)
24.12.2023 01:00 8,4 C 83 % 1012,3 hPa 0,0 l/m 13,0 km/h (3 Bft) SW 5,7 C 4,3 C 19,1 km/h (3 Bft)
24.12.2023 02:00 8,4 C 84 % 1012,3 hPa 0,0 l/m 12,8 km/h (3 Bft) W-SW 5,9 C 4,3 C 18,4 km/h (3 Bft)
24.12.2023 03:00 8,6 C 83 % 1012,6 hPa 0,0 l/m 11,0 km/h (2 Bft) SW 5,7 C 5,7 C 15,3 km/h (3 Bft)
24.12.2023 04:00 8,9 C 82 % 1012,6 hPa 0,0 l/m 15,3 km/h (3 Bft) SW 5,9 C 3,6 C 21,5 km/h (4 Bft)
24.12.2023 05:00 9,0 C 81 % 1012,1 hPa 0,0 l/m 10,4 km/h (2 Bft) W-SW 6,0 C 6,3 C 17,6 km/h (3 Bft)
24.12.2023 06:00 9,1 C 82 % 1012,1 hPa 0,0 l/m 17,9 km/h (3 Bft) W-SW 6,2 C 3,0 C 26,3 km/h (4 Bft)
24.12.2023 07:00 8,9 C 83 % 1012,2 hPa 0,0 l/m 19,4 km/h (3 Bft) SW 6,2 C 2,1 C 32,4 km/h (5 Bft)
24.12.2023 08:00 9,1 C 83 % 1011,8 hPa 0,0 l/m 11,5 km/h (2 Bft) W-SW 6,3 C 5,9 C 19,6 km/h (3 Bft)
24.12.2023 09:00 9,5 C 81 % 1011,5 hPa 0,0 l/m 15,8 km/h (3 Bft) SW 6,4 C 4,2 C 23,8 km/h (4 Bft)
24.12.2023 10:00 9,7 C 80 % 1011,3 hPa 0,0 l/m 21,4 km/h (4 Bft) W-SW 6,4 C 2,5 C 34,2 km/h (5 Bft)
24.12.2023 11:00 9,9 C 80 % 1011,5 hPa 0,0 l/m 17,8 km/h (3 Bft) S-SW 6,5 C 3,8 C 24,5 km/h (4 Bft)
24.12.2023 12:00 10,0 C 79 % 1010,8 hPa 0,0 l/m 20,1 km/h (4 Bft) SW 6,4 C 3,2 C 30,6 km/h (5 Bft)
24.12.2023 13:00 10,3 C 78 % 1009,9 hPa 0,0 l/m 15,3 km/h (3 Bft) SW 6,6 C 5,4 C 21,5 km/h (4 Bft)
24.12.2023 14:00 10,3 C 80 % 1009,8 hPa 0,0 l/m 14,8 km/h (3 Bft) S-SW 6,9 C 5,7 C 20,9 km/h (4 Bft)
24.12.2023 15:00 10,8 C 79 % 1009,5 hPa 0,0 l/m 14,0 km/h (3 Bft) W-SW 7,3 C 6,6 C 22,0 km/h (4 Bft)
24.12.2023 16:00 11,1 C 78 % 1009,6 hPa 0,0 l/m 12,3 km/h (3 Bft) W-SW 7,3 C 7,7 C 17,9 km/h (3 Bft)
24.12.2023 17:00 11,3 C 74 % 1009,3 hPa 0,0 l/m 13,3 km/h (3 Bft) W-SW 6,7 C 7,4 C 22,7 km/h (4 Bft)
24.12.2023 18:00 11,7 C 70 % 1009,1 hPa 0,0 l/m 15,8 km/h (3 Bft) S-SW 6,4 C 6,9 C 23,3 km/h (4 Bft)
24.12.2023 19:00 12,5 C 62 % 1008,5 hPa 0,0 l/m 18,4 km/h (3 Bft) W-SW 5,4 C 7,0 C 26,3 km/h (4 Bft)
24.12.2023 20:00 12,6 C 59 % 1008,8 hPa 0,0 l/m 16,0 km/h (3 Bft) SW 4,7 C 8,0 C 23,3 km/h (4 Bft)
24.12.2023 21:00 12,8 C 56 % 1009,6 hPa 0,0 l/m 14,8 km/h (3 Bft) SW 4,2 C 8,6 C 22,0 km/h (4 Bft)
24.12.2023 22:00 12,6 C 56 % 1009,6 hPa 0,0 l/m 17,8 km/h (3 Bft) W-SW 4,0 C 7,4 C 29,9 km/h (5 Bft)
24.12.2023 23:00 12,5 C 55 % 1009,4 hPa 0,0 l/m 18,4 km/h (3 Bft) S-SW 3,8 C 7,1 C 28,7 km/h (4 Bft)
Min-Datum _ 18.12.23 24.12.23 21.12.23 - 18.12.23 - 18.12.23 18.12.23 18.12.23
_ Min-Zeit 08:13 23:43 17:43 - 00:13 - 08:13 08:13 01:13
Minimum _ -2,8 C 54 % 998,6 hPa - 0,0 km/h (0 Bft) - -2,9 C -2,8 C 0,0 km/h (0 Bft)
Max-Datum _ 24.12.23 18.12.23 18.12.23 20.12.23 21.12.23 - 21.12.23 18.12.23 24.12.23
_ Max-Zeit 21:13 00:13 01:13 04:13 12:13 - 20:13 14:13 10:13
Maximum _ 12,8 C 99 % 1029,8 hPa 3,3 l/m 25,6 km/h
W-SW (4 Bft)
- 8,4 C 9,4 C 36,7 km/h
W-SW (5 Bft)
Durchschnitt _ 6,5 C 86 % 1012,9 hPa #17,4 l/m 9,3 km/h (2 Bft) W-SW 4,3 C 3,8 C 14,1 km/h (3 Bft)
www.sexauwetter.de